createdAt,value
2018-09-15T00:00:44.678Z,99581.56
2018-09-15T00:03:12.332Z,99579.13
2018-09-15T00:05:40.020Z,99579.39
2018-09-15T00:08:07.739Z,99574.22
2018-09-15T00:10:35.430Z,99575.95
2018-09-15T00:13:03.132Z,99573.92
2018-09-15T00:15:30.973Z,99578.55
2018-09-15T00:18:00.243Z,99580.56
2018-09-15T00:20:28.020Z,99578.46
2018-09-15T00:22:55.750Z,99576.72
2018-09-15T00:25:23.429Z,99576.21
2018-09-15T00:27:51.120Z,99577.56
2018-09-15T00:30:18.867Z,99578.25
2018-09-15T00:32:46.566Z,99577.72
2018-09-15T00:35:14.251Z,99573.65
2018-09-15T00:37:48.462Z,99568.38
2018-09-15T00:40:16.177Z,99565.53
2018-09-15T00:42:44.099Z,99561.38
2018-09-15T00:45:11.838Z,99561.58
2018-09-15T00:47:39.603Z,99560.78
2018-09-15T00:50:07.409Z,99569.70
2018-09-15T00:52:35.114Z,99576.09
2018-09-15T00:55:02.827Z,99574.39
2018-09-15T00:57:30.508Z,99578.30
2018-09-15T00:59:58.214Z,99570.19
2018-09-15T01:02:26.021Z,99576.10
2018-09-15T01:04:53.678Z,99578.57
2018-09-15T01:07:21.382Z,99578.36
2018-09-15T01:09:49.041Z,99569.20
2018-09-15T01:12:16.756Z,99569.83
2018-09-15T01:14:44.663Z,99577.37
2018-09-15T01:17:12.342Z,99580.05
2018-09-15T01:19:40.029Z,99567.08
2018-09-15T01:22:08.055Z,99562.78
2018-09-15T01:24:35.728Z,99559.27
2018-09-15T01:27:03.442Z,99561.84
2018-09-15T01:29:31.134Z,99556.86
2018-09-15T01:31:58.860Z,99546.21
2018-09-15T01:34:26.517Z,99547.22
2018-09-15T01:36:54.235Z,99549.02
2018-09-15T01:39:21.894Z,99551.75
2018-09-15T01:41:49.566Z,99549.75
2018-09-15T01:44:17.278Z,99544.36
2018-09-15T01:46:44.949Z,99545.87
2018-09-15T01:49:12.613Z,99540.60
2018-09-15T01:51:40.299Z,99547.70
2018-09-15T01:54:07.978Z,99543.16
2018-09-15T01:56:35.637Z,99549.04
2018-09-15T01:59:03.337Z,99550.45
2018-09-15T02:01:31.016Z,99550.80
2018-09-15T02:03:58.684Z,99552.37
2018-09-15T02:06:26.411Z,99548.59
2018-09-15T02:08:54.086Z,99555.59
2018-09-15T02:11:21.769Z,99555.92
2018-09-15T02:13:49.539Z,99552.64
2018-09-15T02:16:17.218Z,99545.95
2018-09-15T02:18:44.881Z,99548.45
2018-09-15T02:21:12.581Z,99553.69
2018-09-15T02:23:40.250Z,99555.41
2018-09-15T02:26:07.998Z,99552.20
2018-09-15T02:28:35.705Z,99555.89
2018-09-15T02:31:03.385Z,99551.86
2018-09-15T02:33:31.035Z,99555.21
2018-09-15T02:35:58.778Z,99552.02
2018-09-15T02:38:26.587Z,99543.45
2018-09-15T02:40:54.246Z,99538.91
2018-09-15T02:43:22.011Z,99541.83
2018-09-15T02:45:49.695Z,99532.39
2018-09-15T02:48:17.419Z,99537.86
2018-09-15T02:50:45.129Z,99539.04
2018-09-15T02:53:12.814Z,99543.00
2018-09-15T02:55:40.498Z,99540.88
2018-09-15T02:58:08.186Z,99543.27
2018-09-15T03:00:36.089Z,99536.27
2018-09-15T03:03:03.769Z,99542.56
2018-09-15T03:05:31.475Z,99540.27
2018-09-15T03:10:26.161Z,99548.41
2018-09-15T03:12:53.883Z,99545.00
2018-09-15T03:15:21.557Z,99556.48
2018-09-15T03:17:49.222Z,99558.07
2018-09-15T03:20:16.943Z,99565.30
2018-09-15T03:22:44.685Z,99563.73
2018-09-15T03:25:12.357Z,99563.70
2018-09-15T03:27:40.067Z,99570.12
2018-09-15T03:30:07.774Z,99572.39
2018-09-15T03:32:35.433Z,99570.32
2018-09-15T03:35:03.174Z,99573.33
2018-09-15T03:37:30.825Z,99576.84
2018-09-15T03:39:58.497Z,99571.72
2018-09-15T03:42:26.301Z,99576.70
2018-09-15T03:44:53.970Z,99578.97
2018-09-15T03:47:21.663Z,99585.39
2018-09-15T03:49:49.365Z,99586.50
2018-09-15T03:52:17.055Z,99591.03
2018-09-15T03:54:44.710Z,99590.55
2018-09-15T03:57:12.396Z,99589.82
2018-09-15T03:59:40.063Z,99584.94
2018-09-15T04:02:07.770Z,99585.12
2018-09-15T04:04:35.492Z,99589.34
2018-09-15T04:07:03.183Z,99588.08
2018-09-15T04:09:30.838Z,99586.60
2018-09-15T04:11:58.582Z,99585.58
2018-09-15T04:14:26.259Z,99593.86
2018-09-15T04:16:53.926Z,99596.27
2018-09-15T04:19:21.650Z,99589.67
2018-09-15T04:21:49.333Z,99597.17
2018-09-15T04:24:17.013Z,99591.80
2018-09-15T04:26:44.702Z,99594.47
2018-09-15T04:29:12.366Z,99592.04
2018-09-15T04:31:40.036Z,99597.69
2018-09-15T04:34:07.734Z,99591.38
2018-09-15T04:36:35.402Z,99597.41
2018-09-15T04:39:03.950Z,99592.92
2018-09-15T04:41:31.673Z,99600.05
2018-09-15T04:43:59.341Z,99595.66
2018-09-15T04:46:27.010Z,99606.23
2018-09-15T04:48:54.693Z,99606.76
2018-09-15T04:51:22.412Z,99607.29
2018-09-15T04:53:50.078Z,99609.48
2018-09-15T04:56:17.789Z,99610.01
2018-09-15T04:58:45.490Z,99617.96
2018-09-15T05:01:13.178Z,99618.94
2018-09-15T05:03:41.079Z,99617.64
2018-09-15T05:06:08.761Z,99611.94
2018-09-15T05:08:36.458Z,99611.56
2018-09-15T05:11:04.185Z,99610.62
2018-09-15T05:13:31.899Z,99611.34
2018-09-15T05:15:59.570Z,99606.44
2018-09-15T05:18:27.277Z,99606.84
2018-09-15T05:20:54.999Z,99605.16
2018-09-15T05:23:22.676Z,99607.50
2018-09-15T05:25:50.387Z,99604.90
2018-09-15T05:28:18.058Z,99601.98
2018-09-15T05:30:45.718Z,99602.20
2018-09-15T05:33:13.415Z,99603.77
2018-09-15T05:35:41.079Z,99608.52
2018-09-15T05:38:08.794Z,99601.55
2018-09-15T05:40:36.495Z,99609.85
2018-09-15T05:43:04.347Z,99613.44
2018-09-15T05:45:32.203Z,99620.47
2018-09-15T05:47:59.943Z,99623.57
2018-09-15T05:50:27.620Z,99626.58
2018-09-15T05:52:55.894Z,99623.25
2018-09-15T05:55:23.591Z,99634.23
2018-09-15T05:57:51.221Z,99637.14
2018-09-15T06:00:19.022Z,99631.83
2018-09-15T06:02:46.683Z,99638.39
2018-09-15T06:05:14.451Z,99638.03
2018-09-15T06:07:42.171Z,99641.77
2018-09-15T06:10:09.878Z,99645.97
2018-09-15T06:12:37.539Z,99648.17
2018-09-15T06:15:05.295Z,99650.02
2018-09-15T06:17:32.982Z,99646.58
2018-09-15T06:20:00.716Z,99648.38
2018-09-15T06:22:28.381Z,99646.34
2018-09-15T06:24:56.090Z,99651.41
2018-09-15T06:27:23.771Z,99648.91
2018-09-15T06:29:51.449Z,99646.19
2018-09-15T06:32:19.194Z,99649.56
2018-09-15T06:34:46.870Z,99658.41
2018-09-15T06:37:14.522Z,99663.76
2018-09-15T06:39:42.234Z,99657.37
2018-09-15T06:42:09.902Z,99648.42
2018-09-15T06:44:37.625Z,99642.22
2018-09-15T06:47:05.322Z,99648.83
2018-09-15T06:49:32.990Z,99644.56
2018-09-15T06:52:00.666Z,99654.88
2018-09-15T06:54:28.354Z,99654.80
2018-09-15T06:56:56.058Z,99662.71
2018-09-15T06:59:23.746Z,99664.06
2018-09-15T07:01:51.429Z,99664.52
2018-09-15T07:04:19.101Z,99662.85
2018-09-15T07:06:46.902Z,99662.30
2018-09-15T07:09:14.875Z,99672.91
2018-09-15T07:11:42.574Z,99665.61
2018-09-15T07:14:10.870Z,99662.94
2018-09-15T07:16:38.745Z,99667.70
2018-09-15T07:19:06.558Z,99658.84
2018-09-15T07:21:34.249Z,99657.61
2018-09-15T07:24:01.971Z,99660.92
2018-09-15T07:26:29.902Z,99656.69
2018-09-15T07:28:57.578Z,99661.55
2018-09-15T07:31:25.325Z,99661.27
2018-09-15T07:33:53.005Z,99653.05
2018-09-15T07:36:20.653Z,99644.73
2018-09-15T07:38:48.388Z,99646.33
2018-09-15T07:41:16.066Z,99645.42
2018-09-15T07:43:43.739Z,99648.52
2018-09-15T07:46:11.449Z,99643.58
2018-09-15T07:48:39.110Z,99648.00
2018-09-15T07:51:06.910Z,99644.48
2018-09-15T07:53:34.577Z,99643.03
2018-09-15T07:56:02.246Z,99638.22
2018-09-15T07:58:29.960Z,99644.11
2018-09-15T08:00:57.678Z,99633.84
2018-09-15T08:03:25.346Z,99641.36
2018-09-15T08:05:53.090Z,99641.61
2018-09-15T08:08:20.917Z,99647.94
2018-09-15T08:10:48.614Z,99650.59
2018-09-15T08:13:16.394Z,99645.43
2018-09-15T08:15:44.121Z,99656.45
2018-09-15T08:18:11.945Z,99643.39
2018-09-15T08:20:39.773Z,99647.49
2018-09-15T08:23:07.537Z,99645.47
2018-09-15T08:25:35.299Z,99638.17
2018-09-15T08:28:03.011Z,99639.23
2018-09-15T08:30:30.817Z,99632.22
2018-09-15T08:32:58.552Z,99631.80
2018-09-15T08:35:26.222Z,99633.14
2018-09-15T08:37:54.032Z,99634.84
2018-09-15T08:40:21.825Z,99635.30
2018-09-15T08:42:49.638Z,99623.94
2018-09-15T08:45:17.777Z,99619.03
2018-09-15T08:47:45.452Z,99620.86
2018-09-15T08:50:13.137Z,99629.58
2018-09-15T08:52:41.067Z,99624.28
2018-09-15T08:55:08.734Z,99630.66
2018-09-15T08:57:36.505Z,99632.72
2018-09-15T09:00:04.317Z,99631.42
2018-09-15T09:02:32.041Z,99635.95
2018-09-15T09:04:59.777Z,99628.70
2018-09-15T09:07:27.582Z,99626.33
2018-09-15T09:09:55.301Z,99621.39
2018-09-15T09:12:23.021Z,99623.23
2018-09-15T09:14:50.744Z,99617.39
2018-09-15T09:17:18.534Z,99616.66
2018-09-15T09:19:46.655Z,99616.77
2018-09-15T09:22:14.414Z,99607.17
2018-09-15T09:24:42.141Z,99616.00
2018-09-15T09:27:09.833Z,99608.56
2018-09-15T09:29:37.493Z,99616.11
2018-09-15T09:32:05.163Z,99616.02
2018-09-15T09:34:32.803Z,99611.84
2018-09-15T09:37:00.523Z,99602.87
2018-09-15T09:39:28.322Z,99607.52
2018-09-15T09:41:56.049Z,99596.06
2018-09-15T09:44:23.786Z,99601.97
2018-09-15T09:46:51.474Z,99594.23
2018-09-15T09:49:19.227Z,99594.77
2018-09-15T09:51:46.988Z,99592.04
2018-09-15T09:54:14.725Z,99589.55
2018-09-15T09:56:42.501Z,99596.96
2018-09-15T09:59:10.222Z,99589.85
2018-09-15T10:01:43.390Z,99593.48
2018-09-15T10:04:11.101Z,99597.27
2018-09-15T10:06:38.846Z,99592.77
2018-09-15T10:09:08.556Z,99590.58
2018-09-15T10:11:36.570Z,99594.56
2018-09-15T10:14:04.289Z,99587.36
2018-09-15T10:16:31.997Z,99585.81
2018-09-15T10:18:59.718Z,99591.27
2018-09-15T10:21:27.499Z,99584.73
2018-09-15T10:23:55.182Z,99586.23
2018-09-15T10:26:22.961Z,99579.17
2018-09-15T10:28:50.697Z,99577.45
2018-09-15T10:31:18.425Z,99570.25
2018-09-15T10:33:46.169Z,99568.45
2018-09-15T10:36:13.919Z,99569.25
2018-09-15T10:38:41.720Z,99557.36
2018-09-15T10:41:09.458Z,99560.67
2018-09-15T10:43:37.167Z,99554.53
2018-09-15T10:46:04.896Z,99554.66
2018-09-15T10:48:32.622Z,99561.84
2018-09-15T10:51:00.427Z,99557.86
2018-09-15T10:53:28.145Z,99551.96
2018-09-15T10:55:55.911Z,99548.53
2018-09-15T10:58:23.614Z,99550.00
2018-09-15T11:00:51.382Z,99537.95
2018-09-15T11:03:19.972Z,99537.81
2018-09-15T11:05:47.773Z,99541.64
2018-09-15T11:08:15.425Z,99534.55
2018-09-15T11:10:43.114Z,99543.48
2018-09-15T11:13:10.817Z,99537.91
2018-09-15T11:15:38.571Z,99532.08
2018-09-15T11:18:06.318Z,99533.02
2018-09-15T11:20:34.018Z,99529.77
2018-09-15T11:23:01.771Z,99530.09
2018-09-15T11:25:29.550Z,99527.16
2018-09-15T11:27:57.266Z,99533.27
2018-09-15T11:30:24.988Z,99532.04
2018-09-15T11:32:52.762Z,99530.06
2018-09-15T11:35:20.566Z,99529.31
2018-09-15T11:37:48.398Z,99524.18
2018-09-15T11:40:16.177Z,99532.04
2018-09-15T11:42:43.860Z,99525.59
2018-09-15T11:45:11.590Z,99521.80
2018-09-15T11:47:39.413Z,99526.13
2018-09-15T11:50:07.226Z,99530.06
2018-09-15T11:52:34.933Z,99519.84
2018-09-15T11:55:02.681Z,99520.39
2018-09-15T11:57:30.470Z,99519.90
2018-09-15T11:59:58.255Z,99514.58
2018-09-15T12:02:28.689Z,99521.22
2018-09-15T12:04:57.168Z,99514.27
2018-09-15T12:07:25.542Z,99505.39
2018-09-15T12:09:53.257Z,99510.41
2018-09-15T12:12:21.134Z,99505.95
2018-09-15T12:14:48.886Z,99507.44
2018-09-15T12:17:16.646Z,99509.09
2018-09-15T12:19:44.385Z,99507.59
2018-09-15T12:22:12.102Z,99501.74
2018-09-15T12:24:39.828Z,99502.94
2018-09-15T12:27:07.550Z,99502.04
2018-09-15T12:29:35.486Z,99497.61
2018-09-15T12:32:03.632Z,99492.17
2018-09-15T12:34:31.282Z,99490.27
2018-09-15T12:36:59.009Z,99487.06
2018-09-15T12:39:27.247Z,99495.43
2018-09-15T12:41:55.003Z,99488.01
2018-09-15T12:44:22.690Z,99490.81
2018-09-15T12:46:51.022Z,99485.69
2018-09-15T12:49:19.238Z,99486.45
2018-09-15T12:51:46.913Z,99481.11
2018-09-15T12:54:14.678Z,99476.34
2018-09-15T12:56:42.400Z,99474.13
2018-09-15T12:59:10.138Z,99476.98
2018-09-15T13:01:37.915Z,99484.06
2018-09-15T13:04:05.649Z,99482.28
2018-09-15T13:06:33.433Z,99473.67
2018-09-15T13:09:01.090Z,99472.72
2018-09-15T13:11:28.881Z,99472.50
2018-09-15T13:13:56.621Z,99466.16
2018-09-15T13:16:24.417Z,99464.16
2018-09-15T13:18:52.183Z,99459.67
2018-09-15T13:21:19.946Z,99454.61
2018-09-15T13:23:47.776Z,99460.39
2018-09-15T13:26:15.650Z,99462.16
2018-09-15T13:28:43.341Z,99461.08
2018-09-15T13:31:11.051Z,99459.91
2018-09-15T13:33:38.745Z,99456.81
2018-09-15T13:36:06.450Z,99446.89
2018-09-15T13:38:34.394Z,99453.64
2018-09-15T13:41:02.161Z,99445.45
2018-09-15T13:43:29.885Z,99448.84
2018-09-15T13:45:57.677Z,99443.75
2018-09-15T13:48:25.415Z,99442.70
2018-09-15T13:50:53.177Z,99443.02
2018-09-15T13:53:21.007Z,99452.73
2018-09-15T13:55:48.714Z,99449.66
2018-09-15T13:58:16.381Z,99442.55
2018-09-15T14:00:44.157Z,99444.64
2018-09-15T14:03:11.934Z,99441.59
2018-09-15T14:05:39.694Z,99444.63
2018-09-15T14:08:07.453Z,99445.81
2018-09-15T14:10:35.254Z,99454.92
2018-09-15T14:13:02.942Z,99450.72
2018-09-15T14:15:30.736Z,99452.13
2018-09-15T14:17:58.465Z,99448.27
2018-09-15T14:20:26.186Z,99446.50
2018-09-15T14:22:53.934Z,99463.28
2018-09-15T14:25:21.670Z,99449.91
2018-09-15T14:27:49.389Z,99455.36
2018-09-15T14:30:17.162Z,99447.67
2018-09-15T14:32:44.861Z,99438.61
2018-09-15T14:35:12.597Z,99448.73
2018-09-15T14:37:40.342Z,99456.34
2018-09-15T14:40:08.149Z,99457.09
2018-09-15T14:42:35.878Z,99460.13
2018-09-15T14:45:03.685Z,99464.94
2018-09-15T14:47:31.386Z,99472.87
2018-09-15T14:49:59.139Z,99467.42
2018-09-15T14:52:26.891Z,99467.92
2018-09-15T14:54:54.578Z,99476.52
2018-09-15T14:57:22.325Z,99474.11
2018-09-15T14:59:50.089Z,99479.64
2018-09-15T15:02:17.854Z,99475.64
2018-09-15T15:04:45.575Z,99483.02
2018-09-15T15:07:13.281Z,99480.97
2018-09-15T15:09:40.966Z,99483.41
2018-09-15T15:12:08.654Z,99481.20
2018-09-15T15:14:36.401Z,99481.18
2018-09-15T15:17:04.182Z,99482.25
2018-09-15T15:19:31.924Z,99484.72
2018-09-15T15:21:59.649Z,99494.03
2018-09-15T15:24:27.336Z,99493.38
2018-09-15T15:26:55.122Z,99488.64
2018-09-15T15:29:23.136Z,99492.59
2018-09-15T15:31:50.874Z,99497.97
2018-09-15T15:34:18.593Z,99498.38
2018-09-15T15:36:46.353Z,99494.98
2018-09-15T15:39:14.006Z,99500.19
2018-09-15T15:41:41.783Z,99493.41
2018-09-15T15:44:09.585Z,99496.99
2018-09-15T15:46:37.272Z,99501.99
2018-09-15T15:49:05.161Z,99494.88
2018-09-15T15:51:33.215Z,99500.65
2018-09-15T15:54:00.926Z,99494.41
2018-09-15T15:56:28.633Z,99497.80
2018-09-15T15:58:56.433Z,99503.30
2018-09-15T16:01:24.088Z,99503.22
2018-09-15T16:03:52.101Z,99506.24
2018-09-15T16:06:19.957Z,99498.79
2018-09-15T16:08:47.870Z,99504.61
2018-09-15T16:11:15.680Z,99510.45
2018-09-15T16:13:43.472Z,99513.07
2018-09-15T16:16:11.153Z,99516.30
2018-09-15T16:18:38.891Z,99524.26
2018-09-15T16:21:06.633Z,99523.43
2018-09-15T16:23:34.375Z,99518.97
2018-09-15T16:26:02.046Z,99518.88
2018-09-15T16:28:29.773Z,99525.45
2018-09-15T16:30:57.453Z,99527.01
2018-09-15T16:33:25.137Z,99525.51
2018-09-15T16:35:53.094Z,99527.26
2018-09-15T16:38:20.927Z,99525.05
2018-09-15T16:40:48.594Z,99524.54
2018-09-15T16:43:16.299Z,99522.42
2018-09-15T16:45:44.046Z,99519.93
2018-09-15T16:48:11.762Z,99524.81
2018-09-15T16:50:39.481Z,99523.81
2018-09-15T16:53:07.194Z,99529.43
2018-09-15T16:55:34.990Z,99531.14
2018-09-15T16:58:02.735Z,99529.58
2018-09-15T17:00:30.479Z,99536.00
2018-09-15T17:02:59.371Z,99534.78
2018-09-15T17:05:27.121Z,99544.33
2018-09-15T17:07:54.881Z,99547.34
2018-09-15T17:10:22.582Z,99550.43
2018-09-15T17:12:50.279Z,99551.20
2018-09-15T17:15:17.955Z,99556.86
2018-09-15T17:17:45.627Z,99557.00
2018-09-15T17:20:13.451Z,99566.13
2018-09-15T17:22:41.131Z,99567.52
2018-09-15T17:25:08.852Z,99572.98
2018-09-15T17:27:36.609Z,99574.37
2018-09-15T17:30:04.777Z,99577.26
2018-09-15T17:32:32.599Z,99582.61
2018-09-15T17:35:00.351Z,99582.36
2018-09-15T17:37:28.057Z,99585.65
2018-09-15T17:39:55.784Z,99584.86
2018-09-15T17:42:23.487Z,99586.16
2018-09-15T17:44:51.148Z,99589.50
2018-09-15T17:47:18.843Z,99588.41
2018-09-15T17:49:46.587Z,99582.70
2018-09-15T17:52:14.283Z,99584.96
2018-09-15T17:54:42.048Z,99585.36
2018-09-15T17:57:09.732Z,99592.71
2018-09-15T17:59:37.427Z,99597.52
2018-09-15T18:02:05.143Z,99595.56
2018-09-15T18:04:32.889Z,99595.27
2018-09-15T18:07:00.575Z,99594.52
2018-09-15T18:09:28.277Z,99600.76
2018-09-15T18:11:55.983Z,99605.44
2018-09-15T18:14:23.690Z,99602.63
2018-09-15T18:16:51.378Z,99610.86
2018-09-15T18:19:19.098Z,99612.70
2018-09-15T18:21:46.784Z,99606.28
2018-09-15T18:24:14.515Z,99611.75
2018-09-15T18:26:42.221Z,99610.50
2018-09-15T18:29:09.883Z,99617.07
2018-09-15T18:31:37.555Z,99625.34
2018-09-15T18:34:05.327Z,99618.45
2018-09-15T18:36:33.116Z,99627.03
2018-09-15T18:39:00.770Z,99622.84
2018-09-15T18:41:28.498Z,99629.45
2018-09-15T18:43:57.073Z,99631.24
2018-09-15T18:46:24.750Z,99633.94
2018-09-15T18:48:52.466Z,99637.16
2018-09-15T18:51:20.227Z,99633.70
2018-09-15T18:53:47.927Z,99643.00
2018-09-15T18:56:15.761Z,99633.99
2018-09-15T18:58:43.364Z,99632.79
2018-09-15T19:01:11.049Z,99639.86
2018-09-15T19:03:38.791Z,99642.05
2018-09-15T19:06:06.611Z,99641.39
2018-09-15T19:08:34.254Z,99646.50
2018-09-15T19:11:02.009Z,99658.32
2018-09-15T19:13:29.714Z,99660.94
2018-09-15T19:15:57.470Z,99656.63
2018-09-15T19:18:25.243Z,99652.05
2018-09-15T19:20:52.922Z,99658.38
2018-09-15T19:23:20.570Z,99654.84
2018-09-15T19:25:48.325Z,99658.05
2018-09-15T19:28:16.041Z,99660.48
2018-09-15T19:30:43.717Z,99655.59
2018-09-15T19:33:11.443Z,99657.70
2018-09-15T19:35:39.161Z,99665.87
2018-09-15T19:38:06.830Z,99667.80
2018-09-15T19:40:34.563Z,99673.06
2018-09-15T19:43:02.263Z,99671.75
2018-09-15T19:45:30.028Z,99671.09
2018-09-15T19:47:58.031Z,99672.64
2018-09-15T19:50:25.756Z,99675.56
2018-09-15T19:52:53.440Z,99675.05
2018-09-15T19:55:21.206Z,99687.43
2018-09-15T19:57:48.888Z,99679.64
2018-09-15T20:00:16.567Z,99685.67
2018-09-15T20:02:44.264Z,99680.19
2018-09-15T20:05:11.965Z,99684.09
2018-09-15T20:07:39.651Z,99690.22
2018-09-15T20:10:07.389Z,99690.32
2018-09-15T20:12:35.073Z,99698.61
2018-09-15T20:15:02.807Z,99694.78
2018-09-15T20:17:29.298Z,99706.36
2018-09-15T20:19:55.750Z,99708.84
2018-09-15T20:22:23.412Z,99711.50
2018-09-15T20:24:51.230Z,99702.78
2018-09-15T20:27:18.958Z,99711.67
2018-09-15T20:29:46.610Z,99722.13
2018-09-15T20:32:14.320Z,99711.10
2018-09-15T20:34:42.000Z,99718.17
2018-09-15T20:37:09.695Z,99718.62
2018-09-15T20:39:37.433Z,99725.42
2018-09-15T20:42:05.144Z,99725.31
2018-09-15T20:44:32.804Z,99724.69
2018-09-15T20:47:00.498Z,99724.55
2018-09-15T20:49:28.166Z,99727.77
2018-09-15T20:51:55.855Z,99728.00
2018-09-15T20:54:23.558Z,99732.00
2018-09-15T20:56:51.226Z,99722.34
2018-09-15T20:59:18.889Z,99723.56
2018-09-15T21:01:46.606Z,99727.89
2018-09-15T21:04:14.305Z,99730.00
2018-09-15T21:06:41.978Z,99730.16
2018-09-15T21:09:11.072Z,99744.05
2018-09-15T21:11:38.994Z,99732.10
2018-09-15T21:14:06.694Z,99740.30
2018-09-15T21:16:34.399Z,99743.05
2018-09-15T21:19:02.169Z,99740.97
2018-09-15T21:21:29.851Z,99749.27
2018-09-15T21:23:57.590Z,99744.66
2018-09-15T21:26:25.281Z,99743.53
2018-09-15T21:28:52.931Z,99747.97
2018-09-15T21:31:20.641Z,99752.04
2018-09-15T21:33:48.335Z,99753.17
2018-09-15T21:36:16.081Z,99750.80
2018-09-15T21:38:43.836Z,99754.33
2018-09-15T21:41:11.533Z,99758.30
2018-09-15T21:43:39.215Z,99762.36
2018-09-15T21:46:07.072Z,99768.47
2018-09-15T21:48:34.733Z,99771.78
2018-09-15T21:51:02.415Z,99778.14
2018-09-15T21:53:30.202Z,99783.07
2018-09-15T21:55:57.889Z,99777.05
2018-09-15T21:58:25.602Z,99781.23
2018-09-15T22:00:58.077Z,99784.00
2018-09-15T22:03:25.780Z,99776.57
2018-09-15T22:05:56.115Z,99781.82
2018-09-15T22:08:24.247Z,99768.83
2018-09-15T22:10:52.041Z,99773.82
2018-09-15T22:13:19.831Z,99775.47
2018-09-15T22:15:47.731Z,99786.47
2018-09-15T22:18:15.618Z,99787.33
2018-09-15T22:20:43.308Z,99794.19
2018-09-15T22:23:11.233Z,99796.39
2018-09-15T22:25:39.008Z,99790.36
2018-09-15T22:28:06.945Z,99788.95
2018-09-15T22:30:34.868Z,99789.81
2018-09-15T22:33:02.688Z,99799.16
2018-09-15T22:35:30.451Z,99792.27
2018-09-15T22:37:58.474Z,99790.11
2018-09-15T22:40:26.267Z,99797.50
2018-09-15T22:42:54.072Z,99787.02
2018-09-15T22:45:22.021Z,99789.78
2018-09-15T22:47:49.816Z,99787.03
2018-09-15T22:50:17.604Z,99791.72
2018-09-15T22:52:45.635Z,99794.47
2018-09-15T22:55:13.430Z,99791.13
2018-09-15T22:57:41.500Z,99798.02
2018-09-15T23:00:09.553Z,99798.89
2018-09-15T23:02:37.437Z,99804.06
2018-09-15T23:05:05.510Z,99796.13
2018-09-15T23:07:33.568Z,99799.39
2018-09-15T23:10:01.600Z,99797.77
2018-09-15T23:12:29.632Z,99807.62
2018-09-15T23:14:57.712Z,99809.55
2018-09-15T23:17:25.506Z,99804.88
2018-09-15T23:19:53.510Z,99815.38
2018-09-15T23:22:21.564Z,99817.84
2018-09-15T23:24:49.286Z,99825.80
2018-09-15T23:27:16.963Z,99828.80
2018-09-15T23:29:44.697Z,99826.88
2018-09-15T23:32:12.360Z,99830.66
2018-09-15T23:34:40.018Z,99823.63
2018-09-15T23:37:07.730Z,99819.08
2018-09-15T23:39:35.396Z,99827.92
2018-09-15T23:42:03.081Z,99830.45
2018-09-15T23:44:30.783Z,99821.26
2018-09-15T23:46:58.558Z,99819.75
2018-09-15T23:49:26.310Z,99810.52
2018-09-15T23:51:54.003Z,99823.52
2018-09-15T23:54:21.666Z,99822.94
2018-09-15T23:56:49.410Z,99823.59
2018-09-15T23:59:17.143Z,99822.69
